sensor_id;sensor_type;location;lat;lon;timestamp;P1;durP1;ratioP1;P2;durP2;ratioP2
52480;SDS011;38393;52.404;13.532;2023-04-22T00:00:03;13.47;;;7.77;;
52480;SDS011;38393;52.404;13.532;2023-04-22T00:02:30;11.53;;;7.60;;
52480;SDS011;38393;52.404;13.532;2023-04-22T00:04:56;14.17;;;7.90;;
52480;SDS011;38393;52.404;13.532;2023-04-22T00:07:22;11.97;;;7.90;;
52480;SDS011;38393;52.404;13.532;2023-04-22T00:09:48;13.00;;;7.83;;
52480;SDS011;38393;52.404;13.532;2023-04-22T00:12:13;12.33;;;7.90;;
52480;SDS011;38393;52.404;13.532;2023-04-22T00:14:39;11.23;;;7.97;;
52480;SDS011;38393;52.404;13.532;2023-04-22T00:17:05;11.50;;;7.87;;
52480;SDS011;38393;52.404;13.532;2023-04-22T00:19:31;11.30;;;7.63;;
52480;SDS011;38393;52.404;13.532;2023-04-22T00:21:57;12.40;;;7.97;;
52480;SDS011;38393;52.404;13.532;2023-04-22T00:24:22;13.03;;;7.97;;
52480;SDS011;38393;52.404;13.532;2023-04-22T00:26:48;12.10;;;8.07;;
52480;SDS011;38393;52.404;13.532;2023-04-22T00:29:14;12.20;;;7.57;;
52480;SDS011;38393;52.404;13.532;2023-04-22T00:31:39;11.67;;;7.73;;
52480;SDS011;38393;52.404;13.532;2023-04-22T00:34:05;14.07;;;8.30;;
52480;SDS011;38393;52.404;13.532;2023-04-22T00:36:31;13.57;;;8.00;;
52480;SDS011;38393;52.404;13.532;2023-04-22T00:38:56;12.03;;;8.50;;
52480;SDS011;38393;52.404;13.532;2023-04-22T00:41:22;14.17;;;8.37;;
52480;SDS011;38393;52.404;13.532;2023-04-22T00:43:48;14.80;;;9.03;;
52480;SDS011;38393;52.404;13.532;2023-04-22T00:46:15;14.33;;;9.57;;
52480;SDS011;38393;52.404;13.532;2023-04-22T00:48:40;19.30;;;10.43;;
52480;SDS011;38393;52.404;13.532;2023-04-22T00:51:06;15.40;;;10.10;;
52480;SDS011;38393;52.404;13.532;2023-04-22T00:53:32;15.53;;;10.37;;
52480;SDS011;38393;52.404;13.532;2023-04-22T00:55:58;14.07;;;9.40;;
52480;SDS011;38393;52.404;13.532;2023-04-22T00:58:25;14.80;;;9.63;;
52480;SDS011;38393;52.404;13.532;2023-04-22T01:00:52;15.73;;;9.70;;
52480;SDS011;38393;52.404;13.532;2023-04-22T01:03:18;15.33;;;10.07;;
52480;SDS011;38393;52.404;13.532;2023-04-22T01:05:44;19.20;;;10.17;;
52480;SDS011;38393;52.404;13.532;2023-04-22T01:08:11;15.37;;;10.10;;
52480;SDS011;38393;52.404;13.532;2023-04-22T01:10:37;16.03;;;10.30;;
52480;SDS011;38393;52.404;13.532;2023-04-22T01:13:03;14.77;;;10.03;;
52480;SDS011;38393;52.404;13.532;2023-04-22T01:15:28;15.17;;;9.90;;
52480;SDS011;38393;52.404;13.532;2023-04-22T01:17:54;17.77;;;9.87;;
52480;SDS011;38393;52.404;13.532;2023-04-22T01:20:20;16.03;;;9.83;;
52480;SDS011;38393;52.404;13.532;2023-04-22T01:22:47;15.33;;;10.17;;
52480;SDS011;38393;52.404;13.532;2023-04-22T01:25:14;15.40;;;9.77;;
52480;SDS011;38393;52.404;13.532;2023-04-22T01:27:40;14.07;;;9.57;;
52480;SDS011;38393;52.404;13.532;2023-04-22T01:30:06;14.73;;;9.50;;
52480;SDS011;38393;52.404;13.532;2023-04-22T01:32:33;15.33;;;8.93;;
52480;SDS011;38393;52.404;13.532;2023-04-22T01:35:00;13.60;;;9.13;;
52480;SDS011;38393;52.404;13.532;2023-04-22T01:37:25;13.50;;;8.57;;
52480;SDS011;38393;52.404;13.532;2023-04-22T01:39:52;13.53;;;8.40;;
52480;SDS011;38393;52.404;13.532;2023-04-22T01:42:17;13.87;;;8.67;;
52480;SDS011;38393;52.404;13.532;2023-04-22T01:44:43;13.33;;;8.60;;
52480;SDS011;38393;52.404;13.532;2023-04-22T01:47:09;15.40;;;8.80;;
52480;SDS011;38393;52.404;13.532;2023-04-22T01:49:34;12.27;;;8.23;;
52480;SDS011;38393;52.404;13.532;2023-04-22T01:52:00;13.33;;;8.27;;
52480;SDS011;38393;52.404;13.532;2023-04-22T01:54:25;13.30;;;8.70;;
52480;SDS011;38393;52.404;13.532;2023-04-22T01:56:51;21.03;;;8.73;;
52480;SDS011;38393;52.404;13.532;2023-04-22T01:59:18;11.70;;;7.80;;
52480;SDS011;38393;52.404;13.532;2023-04-22T02:01:46;14.13;;;8.57;;
52480;SDS011;38393;52.404;13.532;2023-04-22T02:04:12;15.07;;;8.23;;
52480;SDS011;38393;52.404;13.532;2023-04-22T02:06:38;13.20;;;8.70;;
52480;SDS011;38393;52.404;13.532;2023-04-22T02:09:03;15.53;;;8.67;;
52480;SDS011;38393;52.404;13.532;2023-04-22T02:11:29;15.13;;;8.70;;
52480;SDS011;38393;52.404;13.532;2023-04-22T02:13:55;13.87;;;8.33;;
52480;SDS011;38393;52.404;13.532;2023-04-22T02:16:20;13.70;;;8.80;;
52480;SDS011;38393;52.404;13.532;2023-04-22T02:18:46;14.77;;;8.87;;
52480;SDS011;38393;52.404;13.532;2023-04-22T02:21:11;12.80;;;8.57;;
52480;SDS011;38393;52.404;13.532;2023-04-22T02:23:37;13.40;;;8.50;;
52480;SDS011;38393;52.404;13.532;2023-04-22T02:26:03;14.53;;;8.40;;
52480;SDS011;38393;52.404;13.532;2023-04-22T02:28:29;15.70;;;8.60;;
52480;SDS011;38393;52.404;13.532;2023-04-22T02:30:55;15.47;;;8.77;;
52480;SDS011;38393;52.404;13.532;2023-04-22T02:33:21;14.60;;;8.37;;
52480;SDS011;38393;52.404;13.532;2023-04-22T02:35:47;14.97;;;8.20;;
52480;SDS011;38393;52.404;13.532;2023-04-22T02:38:13;12.87;;;8.73;;
52480;SDS011;38393;52.404;13.532;2023-04-22T02:40:38;14.57;;;9.13;;
52480;SDS011;38393;52.404;13.532;2023-04-22T02:43:04;14.60;;;8.53;;
52480;SDS011;38393;52.404;13.532;2023-04-22T02:45:29;12.47;;;8.60;;
52480;SDS011;38393;52.404;13.532;2023-04-22T02:47:55;16.07;;;8.80;;
52480;SDS011;38393;52.404;13.532;2023-04-22T02:50:20;12.97;;;9.30;;
52480;SDS011;38393;52.404;13.532;2023-04-22T02:52:46;15.47;;;9.10;;
52480;SDS011;38393;52.404;13.532;2023-04-22T02:55:11;16.47;;;8.97;;
52480;SDS011;38393;52.404;13.532;2023-04-22T02:57:37;16.87;;;9.40;;
52480;SDS011;38393;52.404;13.532;2023-04-22T03:00:03;17.20;;;9.80;;
52480;SDS011;38393;52.404;13.532;2023-04-22T03:02:29;16.07;;;9.53;;
52480;SDS011;38393;52.404;13.532;2023-04-22T03:04:54;15.00;;;9.07;;
52480;SDS011;38393;52.404;13.532;2023-04-22T03:07:20;13.40;;;8.90;;
52480;SDS011;38393;52.404;13.532;2023-04-22T03:09:45;13.57;;;8.73;;
52480;SDS011;38393;52.404;13.532;2023-04-22T03:12:11;16.40;;;9.77;;
52480;SDS011;38393;52.404;13.532;2023-04-22T03:14:36;16.63;;;10.37;;
52480;SDS011;38393;52.404;13.532;2023-04-22T03:17:01;14.33;;;9.40;;
52480;SDS011;38393;52.404;13.532;2023-04-22T03:19:27;15.77;;;9.40;;
52480;SDS011;38393;52.404;13.532;2023-04-22T03:21:52;16.53;;;9.37;;
52480;SDS011;38393;52.404;13.532;2023-04-22T03:24:18;15.27;;;9.33;;
52480;SDS011;38393;52.404;13.532;2023-04-22T03:26:43;16.07;;;9.57;;
52480;SDS011;38393;52.404;13.532;2023-04-22T03:29:09;15.73;;;9.80;;
52480;SDS011;38393;52.404;13.532;2023-04-22T03:31:34;13.43;;;8.83;;
52480;SDS011;38393;52.404;13.532;2023-04-22T03:34:01;15.63;;;9.57;;
52480;SDS011;38393;52.404;13.532;2023-04-22T03:36:26;17.27;;;9.70;;
52480;SDS011;38393;52.404;13.532;2023-04-22T03:38:52;16.23;;;8.97;;
52480;SDS011;38393;52.404;13.532;2023-04-22T03:41:17;13.53;;;9.20;;
52480;SDS011;38393;52.404;13.532;2023-04-22T03:43:43;14.93;;;8.90;;
52480;SDS011;38393;52.404;13.532;2023-04-22T03:46:08;14.43;;;9.23;;
52480;SDS011;38393;52.404;13.532;2023-04-22T03:48:34;16.00;;;9.57;;
52480;SDS011;38393;52.404;13.532;2023-04-22T03:51:00;19.43;;;9.33;;
52480;SDS011;38393;52.404;13.532;2023-04-22T03:53:26;15.73;;;9.27;;
52480;SDS011;38393;52.404;13.532;2023-04-22T03:55:52;19.20;;;9.70;;
52480;SDS011;38393;52.404;13.532;2023-04-22T03:58:18;16.13;;;9.43;;
52480;SDS011;38393;52.404;13.532;2023-04-22T04:00:43;15.77;;;10.00;;
52480;SDS011;38393;52.404;13.532;2023-04-22T04:03:09;16.20;;;9.27;;
52480;SDS011;38393;52.404;13.532;2023-04-22T04:05:35;16.90;;;9.50;;
52480;SDS011;38393;52.404;13.532;2023-04-22T04:08:00;17.53;;;9.37;;
52480;SDS011;38393;52.404;13.532;2023-04-22T04:10:26;15.97;;;9.20;;
52480;SDS011;38393;52.404;13.532;2023-04-22T04:12:52;14.70;;;9.80;;
52480;SDS011;38393;52.404;13.532;2023-04-22T04:15:17;18.87;;;9.43;;
52480;SDS011;38393;52.404;13.532;2023-04-22T04:17:43;16.23;;;9.83;;
52480;SDS011;38393;52.404;13.532;2023-04-22T04:20:10;17.60;;;9.70;;
52480;SDS011;38393;52.404;13.532;2023-04-22T04:22:35;14.90;;;9.67;;
52480;SDS011;38393;52.404;13.532;2023-04-22T04:25:01;14.67;;;8.90;;
52480;SDS011;38393;52.404;13.532;2023-04-22T04:27:27;14.70;;;9.07;;
52480;SDS011;38393;52.404;13.532;2023-04-22T04:29:53;14.67;;;9.23;;
52480;SDS011;38393;52.404;13.532;2023-04-22T04:32:19;17.53;;;10.50;;
52480;SDS011;38393;52.404;13.532;2023-04-22T04:34:46;17.93;;;9.30;;
52480;SDS011;38393;52.404;13.532;2023-04-22T04:37:11;16.40;;;9.13;;
52480;SDS011;38393;52.404;13.532;2023-04-22T04:39:37;16.57;;;9.30;;
52480;SDS011;38393;52.404;13.532;2023-04-22T04:42:02;14.20;;;9.20;;
52480;SDS011;38393;52.404;13.532;2023-04-22T04:44:28;14.17;;;9.33;;
52480;SDS011;38393;52.404;13.532;2023-04-22T04:46:56;14.30;;;9.20;;
52480;SDS011;38393;52.404;13.532;2023-04-22T04:49:21;16.87;;;9.77;;
52480;SDS011;38393;52.404;13.532;2023-04-22T04:51:47;14.97;;;9.70;;
52480;SDS011;38393;52.404;13.532;2023-04-22T04:54:13;17.67;;;9.67;;
52480;SDS011;38393;52.404;13.532;2023-04-22T04:56:39;14.73;;;9.40;;
52480;SDS011;38393;52.404;13.532;2023-04-22T04:59:04;13.23;;;9.17;;
52480;SDS011;38393;52.404;13.532;2023-04-22T05:01:30;18.83;;;9.47;;
52480;SDS011;38393;52.404;13.532;2023-04-22T05:03:55;14.63;;;9.60;;
52480;SDS011;38393;52.404;13.532;2023-04-22T05:06:21;15.67;;;9.60;;
52480;SDS011;38393;52.404;13.532;2023-04-22T05:08:46;15.03;;;8.97;;
52480;SDS011;38393;52.404;13.532;2023-04-22T05:11:12;13.63;;;8.30;;
52480;SDS011;38393;52.404;13.532;2023-04-22T05:13:37;16.43;;;9.40;;
52480;SDS011;38393;52.404;13.532;2023-04-22T05:16:03;17.70;;;10.23;;
52480;SDS011;38393;52.404;13.532;2023-04-22T05:18:28;14.63;;;9.13;;
52480;SDS011;38393;52.404;13.532;2023-04-22T05:20:54;13.77;;;9.00;;
52480;SDS011;38393;52.404;13.532;2023-04-22T05:23:22;16.77;;;9.07;;
52480;SDS011;38393;52.404;13.532;2023-04-22T05:25:48;15.57;;;9.10;;
52480;SDS011;38393;52.404;13.532;2023-04-22T05:28:13;14.17;;;8.80;;
52480;SDS011;38393;52.404;13.532;2023-04-22T05:30:39;15.23;;;9.40;;
52480;SDS011;38393;52.404;13.532;2023-04-22T05:33:04;16.40;;;9.70;;
52480;SDS011;38393;52.404;13.532;2023-04-22T05:35:30;18.23;;;9.47;;
52480;SDS011;38393;52.404;13.532;2023-04-22T05:37:55;14.73;;;8.67;;
52480;SDS011;38393;52.404;13.532;2023-04-22T05:40:21;17.13;;;9.03;;
52480;SDS011;38393;52.404;13.532;2023-04-22T05:42:46;17.07;;;8.80;;
52480;SDS011;38393;52.404;13.532;2023-04-22T05:45:12;14.73;;;8.87;;
52480;SDS011;38393;52.404;13.532;2023-04-22T05:47:39;17.00;;;8.87;;
52480;SDS011;38393;52.404;13.532;2023-04-22T05:50:05;13.87;;;9.23;;
52480;SDS011;38393;52.404;13.532;2023-04-22T05:52:31;14.80;;;8.70;;
52480;SDS011;38393;52.404;13.532;2023-04-22T05:54:56;12.97;;;8.60;;
52480;SDS011;38393;52.404;13.532;2023-04-22T05:57:22;14.83;;;9.00;;
52480;SDS011;38393;52.404;13.532;2023-04-22T05:59:47;13.60;;;9.00;;
52480;SDS011;38393;52.404;13.532;2023-04-22T06:02:13;14.80;;;9.17;;
52480;SDS011;38393;52.404;13.532;2023-04-22T06:04:39;15.17;;;8.67;;
52480;SDS011;38393;52.404;13.532;2023-04-22T06:07:05;13.70;;;8.97;;
52480;SDS011;38393;52.404;13.532;2023-04-22T06:09:31;15.73;;;9.13;;
52480;SDS011;38393;52.404;13.532;2023-04-22T06:11:56;15.77;;;8.67;;
52480;SDS011;38393;52.404;13.532;2023-04-22T06:14:22;13.93;;;8.97;;
52480;SDS011;38393;52.404;13.532;2023-04-22T06:16:47;16.50;;;9.20;;
52480;SDS011;38393;52.404;13.532;2023-04-22T06:19:14;15.53;;;9.40;;
52480;SDS011;38393;52.404;13.532;2023-04-22T06:21:40;15.83;;;9.73;;
52480;SDS011;38393;52.404;13.532;2023-04-22T06:24:06;14.37;;;8.57;;
52480;SDS011;38393;52.404;13.532;2023-04-22T06:26:33;16.03;;;8.83;;
52480;SDS011;38393;52.404;13.532;2023-04-22T06:28:58;17.03;;;8.63;;
52480;SDS011;38393;52.404;13.532;2023-04-22T06:31:24;19.70;;;9.37;;
52480;SDS011;38393;52.404;13.532;2023-04-22T06:33:50;17.23;;;9.40;;
52480;SDS011;38393;52.404;13.532;2023-04-22T06:36:15;16.20;;;8.67;;
52480;SDS011;38393;52.404;13.532;2023-04-22T06:38:41;13.67;;;8.60;;
52480;SDS011;38393;52.404;13.532;2023-04-22T06:41:06;15.17;;;9.10;;
52480;SDS011;38393;52.404;13.532;2023-04-22T06:43:32;14.67;;;9.27;;
52480;SDS011;38393;52.404;13.532;2023-04-22T06:45:57;16.67;;;9.17;;
52480;SDS011;38393;52.404;13.532;2023-04-22T06:48:23;18.43;;;9.23;;
52480;SDS011;38393;52.404;13.532;2023-04-22T06:50:48;17.47;;;9.00;;
52480;SDS011;38393;52.404;13.532;2023-04-22T06:53:14;16.47;;;9.03;;
52480;SDS011;38393;52.404;13.532;2023-04-22T06:55:39;22.10;;;9.87;;
52480;SDS011;38393;52.404;13.532;2023-04-22T06:58:05;15.27;;;9.20;;
52480;SDS011;38393;52.404;13.532;2023-04-22T07:00:30;15.17;;;9.17;;
52480;SDS011;38393;52.404;13.532;2023-04-22T07:02:56;15.23;;;9.23;;
52480;SDS011;38393;52.404;13.532;2023-04-22T07:05:21;15.23;;;8.80;;
52480;SDS011;38393;52.404;13.532;2023-04-22T07:07:47;13.30;;;8.67;;
52480;SDS011;38393;52.404;13.532;2023-04-22T07:10:12;14.37;;;8.50;;
52480;SDS011;38393;52.404;13.532;2023-04-22T07:12:38;14.23;;;8.67;;
52480;SDS011;38393;52.404;13.532;2023-04-22T07:15:04;12.47;;;8.17;;
52480;SDS011;38393;52.404;13.532;2023-04-22T07:17:31;12.97;;;8.83;;
52480;SDS011;38393;52.404;13.532;2023-04-22T07:19:57;13.40;;;8.60;;
52480;SDS011;38393;52.404;13.532;2023-04-22T07:22:22;19.27;;;8.80;;
52480;SDS011;38393;52.404;13.532;2023-04-22T07:24:48;19.13;;;9.30;;
52480;SDS011;38393;52.404;13.532;2023-04-22T07:27:13;14.13;;;8.67;;
52480;SDS011;38393;52.404;13.532;2023-04-22T07:29:39;13.63;;;8.90;;
52480;SDS011;38393;52.404;13.532;2023-04-22T07:32:05;15.27;;;9.43;;
52480;SDS011;38393;52.404;13.532;2023-04-22T07:34:30;14.17;;;8.93;;
52480;SDS011;38393;52.404;13.532;2023-04-22T07:36:56;13.37;;;8.37;;
52480;SDS011;38393;52.404;13.532;2023-04-22T07:39:21;11.93;;;8.40;;
52480;SDS011;38393;52.404;13.532;2023-04-22T07:41:47;13.83;;;8.43;;
52480;SDS011;38393;52.404;13.532;2023-04-22T07:44:12;13.43;;;8.60;;
52480;SDS011;38393;52.404;13.532;2023-04-22T07:46:42;11.93;;;8.17;;
52480;SDS011;38393;52.404;13.532;2023-04-22T07:49:07;12.57;;;8.10;;
52480;SDS011;38393;52.404;13.532;2023-04-22T07:51:33;15.63;;;8.33;;
52480;SDS011;38393;52.404;13.532;2023-04-22T07:53:58;12.87;;;8.63;;
52480;SDS011;38393;52.404;13.532;2023-04-22T07:56:24;14.07;;;9.20;;
52480;SDS011;38393;52.404;13.532;2023-04-22T07:58:49;15.00;;;8.67;;
52480;SDS011;38393;52.404;13.532;2023-04-22T08:01:15;15.07;;;8.67;;
52480;SDS011;38393;52.404;13.532;2023-04-22T08:03:40;14.88;;;8.57;;
52480;SDS011;38393;52.404;13.532;2023-04-22T08:06:05;15.30;;;8.57;;
52480;SDS011;38393;52.404;13.532;2023-04-22T08:08:31;14.27;;;9.13;;
52480;SDS011;38393;52.404;13.532;2023-04-22T08:10:57;11.43;;;8.27;;
52480;SDS011;38393;52.404;13.532;2023-04-22T08:13:22;16.73;;;8.80;;
52480;SDS011;38393;52.404;13.532;2023-04-22T08:15:47;16.63;;;8.95;;
52480;SDS011;38393;52.404;13.532;2023-04-22T08:18:13;14.38;;;8.65;;
52480;SDS011;38393;52.404;13.532;2023-04-22T08:20:39;14.45;;;9.15;;
52480;SDS011;38393;52.404;13.532;2023-04-22T08:23:04;13.10;;;8.35;;
52480;SDS011;38393;52.404;13.532;2023-04-22T08:25:31;14.13;;;8.82;;
52480;SDS011;38393;52.404;13.532;2023-04-22T08:27:56;15.98;;;8.77;;
52480;SDS011;38393;52.404;13.532;2023-04-22T08:30:22;12.73;;;8.68;;
52480;SDS011;38393;52.404;13.532;2023-04-22T08:32:48;13.27;;;8.15;;
52480;SDS011;38393;52.404;13.532;2023-04-22T08:35:13;10.98;;;8.02;;
52480;SDS011;38393;52.404;13.532;2023-04-22T08:37:39;15.40;;;8.18;;
52480;SDS011;38393;52.404;13.532;2023-04-22T08:40:06;12.18;;;8.45;;
52480;SDS011;38393;52.404;13.532;2023-04-22T08:42:32;12.82;;;8.13;;
52480;SDS011;38393;52.404;13.532;2023-04-22T08:44:58;14.20;;;8.02;;
52480;SDS011;38393;52.404;13.532;2023-04-22T08:47:25;14.10;;;7.68;;
52480;SDS011;38393;52.404;13.532;2023-04-22T08:49:53;12.45;;;7.68;;
52480;SDS011;38393;52.404;13.532;2023-04-22T08:52:19;14.82;;;8.35;;
52480;SDS011;38393;52.404;13.532;2023-04-22T08:54:45;11.73;;;8.13;;
52480;SDS011;38393;52.404;13.532;2023-04-22T08:57:10;13.63;;;8.30;;
52480;SDS011;38393;52.404;13.532;2023-04-22T08:59:37;13.93;;;7.97;;
52480;SDS011;38393;52.404;13.532;2023-04-22T09:02:04;13.25;;;8.02;;
52480;SDS011;38393;52.404;13.532;2023-04-22T09:04:30;11.38;;;7.78;;
52480;SDS011;38393;52.404;13.532;2023-04-22T09:06:57;18.75;;;8.13;;
52480;SDS011;38393;52.404;13.532;2023-04-22T09:09:23;11.57;;;8.15;;
52480;SDS011;38393;52.404;13.532;2023-04-22T09:11:49;19.02;;;7.93;;
52480;SDS011;38393;52.404;13.532;2023-04-22T09:14:15;14.27;;;7.55;;
52480;SDS011;38393;52.404;13.532;2023-04-22T09:16:45;9.68;;;6.93;;
52480;SDS011;38393;52.404;13.532;2023-04-22T09:19:11;13.65;;;7.22;;
52480;SDS011;38393;52.404;13.532;2023-04-22T09:21:38;14.48;;;7.95;;
52480;SDS011;38393;52.404;13.532;2023-04-22T09:24:05;17.95;;;8.20;;
52480;SDS011;38393;52.404;13.532;2023-04-22T09:26:32;15.48;;;7.68;;
52480;SDS011;38393;52.404;13.532;2023-04-22T09:28:58;11.43;;;7.05;;
52480;SDS011;38393;52.404;13.532;2023-04-22T09:31:25;10.90;;;7.40;;
52480;SDS011;38393;52.404;13.532;2023-04-22T09:33:58;15.43;;;7.35;;
52480;SDS011;38393;52.404;13.532;2023-04-22T09:36:25;12.13;;;7.30;;
52480;SDS011;38393;52.404;13.532;2023-04-22T09:38:55;14.65;;;7.57;;
52480;SDS011;38393;52.404;13.532;2023-04-22T09:41:39;17.77;;;7.45;;
52480;SDS011;38393;52.404;13.532;2023-04-22T09:44:13;12.27;;;7.00;;
52480;SDS011;38393;52.404;13.532;2023-04-22T09:46:41;10.00;;;7.15;;
52480;SDS011;38393;52.404;13.532;2023-04-22T09:49:07;13.95;;;7.55;;
52480;SDS011;38393;52.404;13.532;2023-04-22T09:51:33;13.38;;;6.63;;
52480;SDS011;38393;52.404;13.532;2023-04-22T09:54:00;12.18;;;6.95;;
52480;SDS011;38393;52.404;13.532;2023-04-22T09:56:48;9.93;;;6.15;;
52480;SDS011;38393;52.404;13.532;2023-04-22T09:59:22;11.18;;;6.50;;
52480;SDS011;38393;52.404;13.532;2023-04-22T10:01:50;12.32;;;6.90;;
52480;SDS011;38393;52.404;13.532;2023-04-22T10:04:17;12.35;;;6.40;;
52480;SDS011;38393;52.404;13.532;2023-04-22T10:06:45;10.43;;;6.57;;
52480;SDS011;38393;52.404;13.532;2023-04-22T10:09:12;9.63;;;6.40;;
52480;SDS011;38393;52.404;13.532;2023-04-22T10:11:39;12.77;;;6.50;;
52480;SDS011;38393;52.404;13.532;2023-04-22T10:14:05;12.45;;;6.65;;
52480;SDS011;38393;52.404;13.532;2023-04-22T10:16:31;10.15;;;6.43;;
52480;SDS011;38393;52.404;13.532;2023-04-22T10:19:00;11.52;;;6.38;;
52480;SDS011;38393;52.404;13.532;2023-04-22T10:21:28;12.60;;;6.20;;
52480;SDS011;38393;52.404;13.532;2023-04-22T10:23:57;9.65;;;6.70;;
52480;SDS011;38393;52.404;13.532;2023-04-22T10:29:16;8.90;;;5.93;;
52480;SDS011;38393;52.404;13.532;2023-04-22T10:31:58;11.07;;;6.40;;
52480;SDS011;38393;52.404;13.532;2023-04-22T10:34:48;14.75;;;6.28;;
52480;SDS011;38393;52.404;13.532;2023-04-22T10:37:17;11.05;;;6.50;;
52480;SDS011;38393;52.404;13.532;2023-04-22T10:42:40;8.38;;;5.78;;
52480;SDS011;38393;52.404;13.532;2023-04-22T10:45:13;12.90;;;5.85;;
52480;SDS011;38393;52.404;13.532;2023-04-22T10:47:39;7.53;;;5.68;;
52480;SDS011;38393;52.404;13.532;2023-04-22T10:50:18;10.23;;;6.00;;
52480;SDS011;38393;52.404;13.532;2023-04-22T10:52:46;9.73;;;6.13;;
52480;SDS011;38393;52.404;13.532;2023-04-22T10:55:13;16.73;;;6.53;;
52480;SDS011;38393;52.404;13.532;2023-04-22T10:57:43;10.23;;;6.22;;
52480;SDS011;38393;52.404;13.532;2023-04-22T11:00:24;10.15;;;6.60;;
52480;SDS011;38393;52.404;13.532;2023-04-22T11:03:07;9.90;;;6.13;;
52480;SDS011;38393;52.404;13.532;2023-04-22T11:05:34;12.32;;;6.03;;
52480;SDS011;38393;52.404;13.532;2023-04-22T11:08:02;8.88;;;6.13;;
52480;SDS011;38393;52.404;13.532;2023-04-22T11:10:33;10.75;;;6.00;;
52480;SDS011;38393;52.404;13.532;2023-04-22T11:13:07;10.05;;;6.55;;
52480;SDS011;38393;52.404;13.532;2023-04-22T11:15:35;12.13;;;5.93;;
52480;SDS011;38393;52.404;13.532;2023-04-22T11:18:02;10.35;;;6.00;;
52480;SDS011;38393;52.404;13.532;2023-04-22T11:20:31;10.18;;;5.85;;
52480;SDS011;38393;52.404;13.532;2023-04-22T11:22:57;10.52;;;6.07;;
52480;SDS011;38393;52.404;13.532;2023-04-22T11:25:23;9.65;;;6.40;;
52480;SDS011;38393;52.404;13.532;2023-04-22T11:27:49;10.98;;;6.60;;
52480;SDS011;38393;52.404;13.532;2023-04-22T11:30:20;10.30;;;6.53;;
52480;SDS011;38393;52.404;13.532;2023-04-22T11:32:48;13.55;;;5.90;;
52480;SDS011;38393;52.404;13.532;2023-04-22T11:37:45;17.08;;;5.53;;
52480;SDS011;38393;52.404;13.532;2023-04-22T11:40:12;11.70;;;6.13;;
52480;SDS011;38393;52.404;13.532;2023-04-22T11:42:43;9.23;;;5.63;;
52480;SDS011;38393;52.404;13.532;2023-04-22T11:45:09;12.27;;;5.97;;
52480;SDS011;38393;52.404;13.532;2023-04-22T11:47:35;9.65;;;5.68;;
52480;SDS011;38393;52.404;13.532;2023-04-22T11:50:02;11.93;;;5.47;;
52480;SDS011;38393;52.404;13.532;2023-04-22T11:55:38;10.73;;;5.60;;
52480;SDS011;38393;52.404;13.532;2023-04-22T11:58:05;10.02;;;5.80;;
52480;SDS011;38393;52.404;13.532;2023-04-22T12:00:33;11.82;;;5.78;;
52480;SDS011;38393;52.404;13.532;2023-04-22T12:03:06;7.50;;;5.40;;
52480;SDS011;38393;52.404;13.532;2023-04-22T12:05:40;8.43;;;5.72;;
52480;SDS011;38393;52.404;13.532;2023-04-22T12:10:38;9.52;;;5.78;;
52480;SDS011;38393;52.404;13.532;2023-04-22T12:13:09;10.32;;;5.88;;
52480;SDS011;38393;52.404;13.532;2023-04-22T12:15:42;9.48;;;5.80;;
52480;SDS011;38393;52.404;13.532;2023-04-22T12:18:09;9.80;;;5.72;;
52480;SDS011;38393;52.404;13.532;2023-04-22T12:20:36;8.18;;;5.45;;
52480;SDS011;38393;52.404;13.532;2023-04-22T12:23:03;9.65;;;5.65;;
52480;SDS011;38393;52.404;13.532;2023-04-22T12:25:29;11.23;;;5.63;;
52480;SDS011;38393;52.404;13.532;2023-04-22T12:27:58;8.23;;;5.55;;
52480;SDS011;38393;52.404;13.532;2023-04-22T12:30:23;10.70;;;5.85;;
52480;SDS011;38393;52.404;13.532;2023-04-22T12:32:49;8.05;;;5.38;;
52480;SDS011;38393;52.404;13.532;2023-04-22T12:35:15;7.63;;;5.45;;
52480;SDS011;38393;52.404;13.532;2023-04-22T12:37:41;9.60;;;5.80;;
52480;SDS011;38393;52.404;13.532;2023-04-22T12:40:07;9.30;;;5.70;;
52480;SDS011;38393;52.404;13.532;2023-04-22T12:42:33;10.60;;;5.57;;
52480;SDS011;38393;52.404;13.532;2023-04-22T12:44:59;8.75;;;5.50;;
52480;SDS011;38393;52.404;13.532;2023-04-22T12:47:25;9.07;;;5.38;;
52480;SDS011;38393;52.404;13.532;2023-04-22T12:49:50;9.07;;;5.40;;
52480;SDS011;38393;52.404;13.532;2023-04-22T12:52:16;10.00;;;5.90;;
52480;SDS011;38393;52.404;13.532;2023-04-22T12:54:41;12.95;;;5.50;;
52480;SDS011;38393;52.404;13.532;2023-04-22T12:57:07;9.93;;;5.72;;
52480;SDS011;38393;52.404;13.532;2023-04-22T12:59:32;13.85;;;5.80;;
52480;SDS011;38393;52.404;13.532;2023-04-22T13:01:58;10.45;;;5.70;;
52480;SDS011;38393;52.404;13.532;2023-04-22T13:04:23;10.75;;;6.03;;
52480;SDS011;38393;52.404;13.532;2023-04-22T13:06:49;12.52;;;6.45;;
52480;SDS011;38393;52.404;13.532;2023-04-22T13:09:20;12.63;;;6.25;;
52480;SDS011;38393;52.404;13.532;2023-04-22T13:11:50;10.48;;;5.70;;
52480;SDS011;38393;52.404;13.532;2023-04-22T13:14:16;12.40;;;6.03;;
52480;SDS011;38393;52.404;13.532;2023-04-22T13:16:41;12.10;;;6.05;;
52480;SDS011;38393;52.404;13.532;2023-04-22T13:19:07;11.80;;;6.30;;
52480;SDS011;38393;52.404;13.532;2023-04-22T13:21:32;9.93;;;6.10;;
52480;SDS011;38393;52.404;13.532;2023-04-22T13:23:58;11.00;;;6.32;;
52480;SDS011;38393;52.404;13.532;2023-04-22T13:26:23;9.75;;;6.45;;
52480;SDS011;38393;52.404;13.532;2023-04-22T13:28:49;9.23;;;5.85;;
52480;SDS011;38393;52.404;13.532;2023-04-22T13:31:14;9.30;;;6.05;;
52480;SDS011;38393;52.404;13.532;2023-04-22T13:33:40;8.98;;;5.82;;
52480;SDS011;38393;52.404;13.532;2023-04-22T13:36:08;7.88;;;5.97;;
52480;SDS011;38393;52.404;13.532;2023-04-22T13:38:33;8.95;;;5.70;;
52480;SDS011;38393;52.404;13.532;2023-04-22T13:40:59;12.18;;;5.90;;
52480;SDS011;38393;52.404;13.532;2023-04-22T13:43:24;10.88;;;6.20;;
52480;SDS011;38393;52.404;13.532;2023-04-22T13:45:50;9.77;;;5.85;;
52480;SDS011;38393;52.404;13.532;2023-04-22T13:48:16;7.65;;;5.60;;
52480;SDS011;38393;52.404;13.532;2023-04-22T13:50:42;8.02;;;5.72;;
52480;SDS011;38393;52.404;13.532;2023-04-22T13:53:08;12.20;;;5.63;;
52480;SDS011;38393;52.404;13.532;2023-04-22T13:55:35;9.73;;;5.53;;
52480;SDS011;38393;52.404;13.532;2023-04-22T13:58:02;9.82;;;5.78;;
52480;SDS011;38393;52.404;13.532;2023-04-22T14:00:29;8.00;;;5.82;;
52480;SDS011;38393;52.404;13.532;2023-04-22T14:02:55;9.15;;;5.50;;
52480;SDS011;38393;52.404;13.532;2023-04-22T14:05:20;9.10;;;6.13;;
52480;SDS011;38393;52.404;13.532;2023-04-22T14:07:46;9.55;;;5.72;;
52480;SDS011;38393;52.404;13.532;2023-04-22T14:10:11;7.15;;;5.18;;
52480;SDS011;38393;52.404;13.532;2023-04-22T14:12:37;10.10;;;5.70;;
52480;SDS011;38393;52.404;13.532;2023-04-22T14:15:03;9.07;;;5.60;;
52480;SDS011;38393;52.404;13.532;2023-04-22T14:17:30;11.95;;;6.10;;
52480;SDS011;38393;52.404;13.532;2023-04-22T14:19:56;7.85;;;5.85;;
52480;SDS011;38393;52.404;13.532;2023-04-22T14:22:22;10.70;;;5.93;;
52480;SDS011;38393;52.404;13.532;2023-04-22T14:24:47;10.50;;;6.30;;
52480;SDS011;38393;52.404;13.532;2023-04-22T14:27:13;10.20;;;5.55;;
52480;SDS011;38393;52.404;13.532;2023-04-22T14:29:38;10.38;;;5.70;;
52480;SDS011;38393;52.404;13.532;2023-04-22T14:32:04;8.30;;;5.80;;